Time;durP1;ratioP1;P1;durP2;ratioP2;P2;SDS_P1;SDS_P2;PMS_P1;PMS_P2;Temp;Humidity;BMP_temperature;BMP_pressure;BME280_temperature;BME280_humidity;BME280_pressure;Samples;Min_cycle;Max_cycle;Signal;HPM_P1;HPM_P2
2023/10/28 00:00:32;;;;;;;104.13;35.43;;;10.40;99.90;;;;;;4994677;28;20285;-82
2023/10/28 00:02:58;;;;;;;103.83;35.47;;;10.50;99.90;;;;;;4994961;28;20503;-82
2023/10/28 00:05:24;;;;;;;111.10;38.83;;;10.50;99.90;;;;;;4993544;28;20420;-82
2023/10/28 00:07:51;;;;;;;90.80;35.77;;;10.50;99.90;;;;;;4993555;28;20061;-82
2023/10/28 00:10:18;;;;;;;122.73;42.90;;;10.50;99.90;;;;;;4995255;28;20286;-82
2023/10/28 00:12:44;;;;;;;97.73;40.07;;;10.50;99.90;;;;;;4994712;28;20821;-83
2023/10/28 00:15:10;;;;;;;128.20;41.00;;;10.40;99.90;;;;;;4993358;28;20306;-82
2023/10/28 00:17:37;;;;;;;149.13;45.73;;;10.40;99.90;;;;;;4994500;28;20336;-83
2023/10/28 00:20:04;;;;;;;115.47;40.53;;;10.50;99.90;;;;;;4992772;28;20105;-83
2023/10/28 00:22:31;;;;;;;122.73;41.93;;;10.50;99.90;;;;;;4994404;28;20285;-83
2023/10/28 00:24:58;;;;;;;103.67;42.30;;;10.50;99.90;;;;;;4993383;28;20290;-82
2023/10/28 00:27:25;;;;;;;99.80;41.30;;;10.40;99.90;;;;;;4994320;28;20270;-82
2023/10/28 00:29:52;;;;;;;106.37;42.13;;;10.40;99.90;;;;;;4994231;28;20278;-83
2023/10/28 00:32:22;;;;;;;93.93;41.10;;;10.40;99.90;;;;;;4993196;28;20297;-82
2023/10/28 00:34:49;;;;;;;87.03;39.53;;;10.30;99.90;;;;;;4994159;28;20278;-82
2023/10/28 00:37:15;;;;;;;127.87;45.17;;;10.30;99.90;;;;;;4992605;28;20294;-82
2023/10/28 00:39:42;;;;;;;140.80;48.23;;;10.30;99.90;;;;;;4993477;28;20285;-82
2023/10/28 00:42:13;;;;;;;170.20;48.93;;;10.30;99.90;;;;;;4994113;28;20380;-82
2023/10/28 00:44:39;;;;;;;110.30;41.80;;;10.30;99.90;;;;;;4994712;28;20285;-83
2023/10/28 00:47:05;;;;;;;118.30;43.63;;;10.30;99.90;;;;;;4993328;28;20761;-82
2023/10/28 00:49:31;;;;;;;120.17;42.67;;;10.40;99.90;;;;;;4994129;28;20309;-83
2023/10/28 00:51:59;;;;;;;136.90;45.83;;;10.30;99.90;;;;;;4993817;28;20317;-83
2023/10/28 00:54:26;;;;;;;129.60;43.90;;;10.30;99.90;;;;;;4994499;28;20054;-82
2023/10/28 00:56:54;;;;;;;139.33;45.93;;;10.30;99.90;;;;;;4992715;28;20305;-82
2023/10/28 00:59:20;;;;;;;130.07;43.77;;;10.30;99.90;;;;;;4992922;28;20290;-82
2023/10/28 01:01:46;;;;;;;96.70;40.30;;;10.30;99.90;;;;;;4994427;28;20340;-82
2023/10/28 01:04:12;;;;;;;118.30;43.13;;;10.30;99.90;;;;;;4993947;28;20120;-82
2023/10/28 01:06:38;;;;;;;116.23;43.10;;;10.30;99.90;;;;;;4994654;28;20289;-82
2023/10/28 01:09:04;;;;;;;134.07;45.47;;;10.30;99.90;;;;;;4992666;28;20278;-82
2023/10/28 01:11:31;;;;;;;108.80;42.23;;;10.20;99.90;;;;;;4994582;28;20323;-82
2023/10/28 01:13:56;;;;;;;115.07;42.37;;;10.30;99.90;;;;;;4994580;28;20313;-82
2023/10/28 01:16:22;;;;;;;99.47;39.33;;;10.20;99.90;;;;;;4992533;28;20721;-82
2023/10/28 01:18:57;;;;;;;129.07;47.17;;;10.20;99.90;;;;;;4992652;28;20086;-82
2023/10/28 01:21:23;;;;;;;120.90;43.80;;;10.20;99.90;;;;;;4996159;28;20046;-82
2023/10/28 01:23:49;;;;;;;88.77;39.83;;;10.20;99.90;;;;;;4997506;28;20292;-82
2023/10/28 01:26:15;;;;;;;172.87;48.23;;;10.10;99.90;;;;;;4997430;28;20042;-82
2023/10/28 01:28:41;;;;;;;114.83;44.60;;;10.20;99.90;;;;;;4997604;28;20614;-82
2023/10/28 01:31:08;;;;;;;96.67;41.23;;;10.20;99.90;;;;;;4996429;28;20050;-82
2023/10/28 01:33:34;;;;;;;107.40;42.43;;;10.20;99.90;;;;;;4997305;28;20107;-82
2023/10/28 01:36:00;;;;;;;144.13;47.03;;;10.10;99.90;;;;;;4996994;28;20301;-81
2023/10/28 01:38:26;;;;;;;108.93;41.27;;;10.10;99.90;;;;;;4997821;28;20050;-82
2023/10/28 01:40:52;;;;;;;125.17;43.83;;;10.10;99.90;;;;;;4997834;28;20282;-82
2023/10/28 01:43:21;;;;;;;160.30;47.83;;;10.00;99.90;;;;;;4996841;28;20317;-83
2023/10/28 01:45:47;;;;;;;103.67;41.67;;;10.00;99.90;;;;;;4979910;28;20299;-82
2023/10/28 01:48:13;;;;;;;101.07;40.73;;;9.90;99.90;;;;;;4996401;28;20294;-82
2023/10/28 01:50:39;;;;;;;110.90;39.83;;;9.90;99.90;;;;;;4995643;28;20050;-82
2023/10/28 01:53:05;;;;;;;134.23;43.87;;;9.90;99.90;;;;;;4995800;28;20278;-82
2023/10/28 01:55:32;;;;;;;84.10;37.70;;;9.90;99.90;;;;;;4996851;28;20623;-82
2023/10/28 01:57:58;;;;;;;94.23;39.17;;;9.80;99.90;;;;;;4996667;28;20054;-82
2023/10/28 02:00:30;;;;;;;92.43;38.63;;;9.80;99.90;;;;;;4995693;28;20360;-82
2023/10/28 02:03:00;;;;;;;107.17;39.70;;;9.90;99.90;;;;;;4996838;28;20451;-82
2023/10/28 02:05:26;;;;;;;115.43;40.90;;;9.80;99.90;;;;;;4995580;28;20336;-82
2023/10/28 02:07:52;;;;;;;107.63;39.03;;;9.80;99.90;;;;;;4995750;28;20765;-82
2023/10/28 02:10:17;;;;;;;82.53;35.03;;;9.80;99.90;;;;;;4995737;28;20292;-82
2023/10/28 02:12:43;;;;;;;100.07;37.83;;;9.80;99.90;;;;;;4996594;28;20046;-82
2023/10/28 02:15:09;;;;;;;99.33;38.33;;;9.80;99.90;;;;;;4995890;28;20379;-82
2023/10/28 02:17:35;;;;;;;172.73;42.90;;;9.80;99.90;;;;;;4996551;28;20046;-82
2023/10/28 02:20:03;;;;;;;153.57;42.93;;;9.80;99.90;;;;;;4996414;28;20754;-82
2023/10/28 02:22:31;;;;;;;82.43;35.17;;;9.80;99.90;;;;;;4997148;28;20294;-82
2023/10/28 02:24:57;;;;;;;103.40;36.90;;;9.70;99.90;;;;;;4996437;28;20277;-82
2023/10/28 02:27:23;;;;;;;136.57;40.83;;;9.80;99.90;;;;;;4996978;28;20317;-82
2023/10/28 02:29:49;;;;;;;106.40;37.53;;;9.80;99.90;;;;;;4996354;28;20317;-82
2023/10/28 02:32:15;;;;;;;67.50;33.03;;;9.80;99.90;;;;;;4996076;28;20046;-82
2023/10/28 02:34:43;;;;;;;88.40;34.27;;;9.80;99.90;;;;;;4996230;28;20097;-82
2023/10/28 02:37:10;;;;;;;106.43;36.17;;;9.80;99.90;;;;;;4994889;28;20055;-82
2023/10/28 02:39:37;;;;;;;106.03;37.70;;;9.70;99.90;;;;;;4995177;28;20311;-82
2023/10/28 02:42:03;;;;;;;92.93;34.43;;;9.70;99.90;;;;;;4996123;28;20376;-82
2023/10/28 02:44:33;;;;;;;94.23;36.27;;;9.80;99.90;;;;;;4995720;28;20324;-82
2023/10/28 02:46:59;;;;;;;125.47;36.90;;;9.80;99.90;;;;;;4996043;28;20054;-82
2023/10/28 02:49:25;;;;;;;74.93;33.13;;;9.70;99.90;;;;;;4995682;28;20868;-81
2023/10/28 02:51:51;;;;;;;90.63;31.97;;;9.70;99.90;;;;;;4994666;28;20361;-81
2023/10/28 02:54:17;;;;;;;73.97;30.47;;;9.70;99.90;;;;;;4995833;28;20368;-81
2023/10/28 02:56:43;;;;;;;83.27;30.23;;;9.70;99.90;;;;;;4995696;28;20097;-82
2023/10/28 02:59:10;;;;;;;66.93;28.80;;;9.70;99.90;;;;;;4995665;28;20096;-81
2023/10/28 03:01:39;;;;;;;87.47;30.27;;;9.70;99.90;;;;;;4996503;28;20094;-82
2023/10/28 03:04:07;;;;;;;114.83;33.40;;;9.60;99.90;;;;;;4995721;28;20289;-82
2023/10/28 03:06:33;;;;;;;75.73;28.57;;;9.60;99.90;;;;;;4995606;28;20336;-82
2023/10/28 03:08:59;;;;;;;96.33;32.70;;;9.60;99.90;;;;;;4995533;28;20622;-81
2023/10/28 03:11:24;;;;;;;116.23;34.10;;;9.60;99.90;;;;;;4994327;28;20092;-81
2023/10/28 03:13:50;;;;;;;98.53;31.97;;;9.50;99.90;;;;;;4996210;28;20321;-82
2023/10/28 03:16:16;;;;;;;99.60;32.33;;;9.50;99.90;;;;;;4995203;28;20046;-82
2023/10/28 03:18:41;;;;;;;100.70;32.20;;;9.50;99.90;;;;;;4994354;28;20479;-82
2023/10/28 03:21:07;;;;;;;98.50;30.90;;;9.50;99.90;;;;;;4994146;28;20050;-81
2023/10/28 03:23:33;;;;;;;109.20;32.90;;;9.50;99.90;;;;;;4994945;28;20443;-82
2023/10/28 03:25:59;;;;;;;93.87;30.00;;;9.50;99.90;;;;;;4994340;28;20323;-81
2023/10/28 03:28:24;;;;;;;61.67;26.20;;;9.40;99.90;;;;;;4995194;28;20046;-81
2023/10/28 03:30:50;;;;;;;55.63;24.13;;;9.50;99.90;;;;;;4995707;28;20050;-82
2023/10/28 03:33:16;;;;;;;107.87;31.43;;;9.40;99.90;;;;;;4994965;28;20463;-82
2023/10/28 03:35:42;;;;;;;87.57;28.13;;;9.40;99.90;;;;;;4995076;28;20050;-82
2023/10/28 03:38:09;;;;;;;88.67;29.40;;;9.40;99.90;;;;;;4994865;28;20696;-81
2023/10/28 03:40:36;;;;;;;99.70;29.93;;;9.30;99.90;;;;;;4994072;28;20046;-82
2023/10/28 03:43:02;;;;;;;73.43;26.40;;;9.40;99.90;;;;;;4994293;28;20285;-82
2023/10/28 03:45:28;;;;;;;68.57;25.87;;;9.30;99.90;;;;;;4994876;28;20281;-81
2023/10/28 03:47:54;;;;;;;90.57;28.60;;;9.30;99.90;;;;;;4994891;28;20483;-81
2023/10/28 03:50:20;;;;;;;84.17;27.87;;;9.20;99.90;;;;;;4994539;28;20517;-82
2023/10/28 03:52:46;;;;;;;65.30;24.30;;;9.20;99.90;;;;;;4995583;28;20289;-82
2023/10/28 03:55:12;;;;;;;88.57;28.73;;;9.20;99.90;;;;;;4993755;28;20125;-82
2023/10/28 03:57:37;;;;;;;71.73;26.53;;;9.30;99.90;;;;;;4993746;28;20377;-82
2023/10/28 04:00:03;;;;;;;82.63;27.93;;;9.20;99.90;;;;;;4978321;28;20069;-82
2023/10/28 04:02:29;;;;;;;92.13;28.87;;;9.20;99.90;;;;;;4993669;28;20054;-82
2023/10/28 04:04:56;;;;;;;67.63;27.17;;;9.20;99.90;;;;;;4994597;28;20288;-81
2023/10/28 04:07:22;;;;;;;69.57;26.03;;;9.10;99.90;;;;;;4993326;28;20054;-82
2023/10/28 04:09:47;;;;;;;77.67;27.00;;;9.10;99.90;;;;;;4994292;28;20377;-82
2023/10/28 04:12:13;;;;;;;56.57;23.57;;;9.10;99.90;;;;;;4994547;28;20042;-82
2023/10/28 04:14:39;;;;;;;66.77;26.07;;;9.10;99.90;;;;;;4993482;28;20058;-82
2023/10/28 04:17:05;;;;;;;113.27;31.57;;;9.10;99.90;;;;;;4993197;28;20293;-81
2023/10/28 04:19:31;;;;;;;52.27;25.63;;;9.10;99.90;;;;;;4994441;28;20286;-82
2023/10/28 04:21:57;;;;;;;73.47;27.10;;;9.10;99.90;;;;;;4977982;28;20064;-81
2023/10/28 04:24:23;;;;;;;88.30;28.73;;;9.10;99.90;;;;;;4994147;28;20526;-81
2023/10/28 04:26:49;;;;;;;114.20;31.87;;;9.10;99.90;;;;;;4994252;28;20073;-82
2023/10/28 04:29:15;;;;;;;113.33;33.17;;;9.10;99.90;;;;;;4994285;28;20282;-81
2023/10/28 04:31:40;;;;;;;74.13;28.90;;;9.10;99.90;;;;;;4993943;28;20073;-82
2023/10/28 04:34:06;;;;;;;85.67;28.80;;;9.10;99.90;;;;;;4994759;28;20042;-81
2023/10/28 04:36:33;;;;;;;65.03;27.67;;;9.10;99.90;;;;;;4994636;28;20517;-81
2023/10/28 04:38:58;;;;;;;86.57;30.13;;;9.10;99.90;;;;;;4993003;28;20097;-81
2023/10/28 04:41:24;;;;;;;79.50;30.47;;;9.20;99.90;;;;;;4992902;28;20723;-82
2023/10/28 04:43:50;;;;;;;55.43;26.27;;;9.20;99.90;;;;;;4994136;28;20109;-82
2023/10/28 04:46:15;;;;;;;88.83;30.73;;;9.10;99.90;;;;;;4994078;28;20082;-82
2023/10/28 04:48:46;;;;;;;73.30;29.90;;;9.20;99.90;;;;;;4993073;28;20049;-82
2023/10/28 04:51:13;;;;;;;96.40;33.03;;;9.10;99.90;;;;;;4994711;28;20090;-81
2023/10/28 04:53:39;;;;;;;141.50;37.77;;;9.20;99.90;;;;;;4994806;28;20282;-82
2023/10/28 04:56:08;;;;;;;87.77;32.37;;;9.20;99.90;;;;;;4997498;28;20832;-82
2023/10/28 04:58:34;;;;;;;143.20;38.63;;;9.20;99.90;;;;;;4997768;28;20482;-82
2023/10/28 05:01:00;;;;;;;66.90;28.97;;;9.20;99.90;;;;;;4997017;28;20285;-82
2023/10/28 05:03:26;;;;;;;112.97;36.10;;;9.20;99.90;;;;;;4996947;28;20297;-82
2023/10/28 05:05:52;;;;;;;83.30;30.47;;;9.30;99.90;;;;;;4997835;28;20038;-82
2023/10/28 05:08:17;;;;;;;105.53;34.57;;;9.20;99.90;;;;;;4997864;28;20065;-81
2023/10/28 05:10:43;;;;;;;80.90;30.93;;;9.20;99.90;;;;;;4997805;28;20459;-83
2023/10/28 05:13:12;;;;;;;95.90;34.20;;;9.20;99.90;;;;;;4996808;28;20046;-82
2023/10/28 05:15:38;;;;;;;73.50;29.00;;;9.20;99.90;;;;;;4980851;28;20128;-82
2023/10/28 05:18:04;;;;;;;73.33;28.70;;;9.10;99.90;;;;;;4997874;28;20332;-82
2023/10/28 05:20:33;;;;;;;77.33;30.53;;;9.10;99.90;;;;;;4998402;28;20340;-81
2023/10/28 05:22:59;;;;;;;162.03;40.83;;;9.10;99.90;;;;;;4997531;28;20304;-81
2023/10/28 05:25:25;;;;;;;91.90;32.80;;;9.10;99.90;;;;;;4997562;28;20282;-82
2023/10/28 05:27:50;;;;;;;75.30;30.67;;;9.20;99.90;;;;;;4997377;28;20464;-82
2023/10/28 05:30:16;;;;;;;87.07;31.77;;;9.10;99.90;;;;;;4996758;28;20053;-82
2023/10/28 05:32:42;;;;;;;102.37;34.23;;;9.20;99.90;;;;;;4997507;28;20512;-82
2023/10/28 05:35:10;;;;;;;85.43;32.97;;;9.20;99.90;;;;;;4996278;28;20042;-82
2023/10/28 05:37:37;;;;;;;98.27;34.20;;;9.20;99.90;;;;;;4997945;28;20062;-81
2023/10/28 05:40:03;;;;;;;110.73;37.03;;;9.20;99.90;;;;;;4996281;28;20348;-82
2023/10/28 05:42:28;;;;;;;98.77;35.20;;;9.20;99.90;;;;;;4997992;28;20289;-82
2023/10/28 05:44:54;;;;;;;92.03;34.83;;;9.20;99.90;;;;;;4996171;28;20289;-81
2023/10/28 05:47:20;;;;;;;112.57;36.77;;;9.30;99.90;;;;;;4997115;28;20108;-81
2023/10/28 05:49:45;;;;;;;106.20;35.60;;;9.30;99.90;;;;;;4996698;28;20398;-81
2023/10/28 05:52:12;;;;;;;117.23;37.67;;;9.30;99.90;;;;;;4996083;28;20129;-82
2023/10/28 05:54:39;;;;;;;85.33;34.03;;;9.40;99.90;;;;;;4997038;28;20054;-81
2023/10/28 05:57:05;;;;;;;95.57;35.40;;;9.40;99.90;;;;;;4995946;28;20312;-82
2023/10/28 05:59:31;;;;;;;84.77;33.93;;;9.40;99.90;;;;;;4996907;28;20379;-81
2023/10/28 06:01:56;;;;;;;89.60;33.47;;;9.40;99.90;;;;;;4996824;28;20332;-82
2023/10/28 06:04:22;;;;;;;91.60;37.10;;;9.50;99.90;;;;;;4997659;28;20545;-82
2023/10/28 06:06:48;;;;;;;93.73;35.30;;;9.40;99.90;;;;;;4996257;28;20080;-81
2023/10/28 06:09:15;;;;;;;101.27;36.10;;;9.50;99.90;;;;;;4997018;28;20050;-82
2023/10/28 06:11:41;;;;;;;67.50;30.60;;;9.50;99.90;;;;;;4996500;28;20056;-81
2023/10/28 06:14:08;;;;;;;96.20;36.60;;;9.60;99.90;;;;;;4996634;28;20321;-82
2023/10/28 06:16:34;;;;;;;76.13;32.87;;;9.60;99.90;;;;;;4996535;28;20293;-82
2023/10/28 06:19:00;;;;;;;107.80;37.63;;;9.60;99.90;;;;;;4996585;28;20355;-82
2023/10/28 06:21:26;;;;;;;87.67;34.90;;;9.60;99.90;;;;;;4995462;28;20047;-82
2023/10/28 06:23:52;;;;;;;84.70;34.60;;;9.60;99.90;;;;;;4996185;28;20050;-83
2023/10/28 06:26:18;;;;;;;69.03;31.07;;;9.70;99.90;;;;;;4996402;28;20042;-82
2023/10/28 06:28:45;;;;;;;89.70;32.60;;;9.70;99.90;;;;;;4997170;28;20108;-82
2023/10/28 06:31:10;;;;;;;75.70;31.73;;;9.70;99.90;;;;;;4979318;28;20293;-82
2023/10/28 06:33:36;;;;;;;87.30;33.13;;;9.70;99.90;;;;;;4996260;28;20634;-82
2023/10/28 06:36:03;;;;;;;90.33;32.83;;;9.70;99.90;;;;;;4996489;28;20042;-82
2023/10/28 06:38:30;;;;;;;64.67;30.33;;;9.80;99.90;;;;;;4996094;28;20149;-82
2023/10/28 06:40:57;;;;;;;47.07;25.80;;;9.80;99.90;;;;;;4996184;28;20320;-83
2023/10/28 06:43:23;;;;;;;64.43;26.73;;;9.80;99.90;;;;;;4994944;28;20277;-82
2023/10/28 06:45:49;;;;;;;63.90;29.73;;;9.80;99.90;;;;;;4995915;28;20281;-82
2023/10/28 06:48:17;;;;;;;58.93;26.27;;;9.80;99.90;;;;;;4994994;28;20630;-81
2023/10/28 06:50:44;;;;;;;56.20;26.23;;;9.80;99.90;;;;;;4995019;28;20364;-82
2023/10/28 06:53:10;;;;;;;63.87;25.87;;;9.90;99.90;;;;;;4994722;28;20641;-82
2023/10/28 06:55:36;;;;;;;64.67;25.67;;;9.90;99.90;;;;;;4994832;28;20297;-82
2023/10/28 06:58:02;;;;;;;46.00;23.90;;;9.90;99.90;;;;;;4996080;28;20537;-82
2023/10/28 07:00:27;;;;;;;43.50;22.33;;;9.90;99.90;;;;;;4994808;28;20405;-81
2023/10/28 07:02:55;;;;;;;47.67;23.17;;;10.00;99.90;;;;;;4995706;28;20048;-81
2023/10/28 07:05:21;;;;;;;40.40;21.20;;;9.90;99.90;;;;;;4995747;28;20475;-81
2023/10/28 07:07:47;;;;;;;47.90;20.10;;;10.00;99.90;;;;;;4995399;28;20301;-82
2023/10/28 07:10:14;;;;;;;41.80;21.30;;;10.00;99.90;;;;;;4994420;28;20301;-82
2023/10/28 07:12:41;;;;;;;39.13;21.67;;;10.00;99.90;;;;;;4995199;28;20430;-81
2023/10/28 07:15:09;;;;;;;38.00;20.03;;;10.00;99.90;;;;;;4994339;28;20344;-81
2023/10/28 07:17:35;;;;;;;34.27;21.07;;;10.00;99.90;;;;;;4993749;28;20425;-81
2023/10/28 07:20:01;;;;;;;40.77;19.07;;;10.00;99.90;;;;;;4995041;28;20502;-81
2023/10/28 07:22:27;;;;;;;37.73;19.07;;;10.00;99.90;;;;;;4995381;28;20277;-81
2023/10/28 07:24:54;;;;;;;39.43;19.57;;;10.00;99.90;;;;;;4996146;28;20278;-81
2023/10/28 07:27:20;;;;;;;35.93;21.07;;;10.10;99.90;;;;;;4995849;28;20050;-82
2023/10/28 07:29:50;;;;;;;32.90;17.73;;;10.10;99.90;;;;;;4995373;28;20281;-81
2023/10/28 07:32:15;;;;;;;30.53;19.17;;;10.10;99.90;;;;;;4995271;28;20286;-82
2023/10/28 07:34:42;;;;;;;29.13;17.07;;;10.20;99.90;;;;;;4995237;28;20286;-81
2023/10/28 07:37:07;;;;;;;34.97;19.40;;;10.20;99.90;;;;;;4995198;28;20149;-82
2023/10/28 07:39:34;;;;;;;35.83;18.77;;;10.20;99.90;;;;;;4978272;28;20328;-82
2023/10/28 07:42:00;;;;;;;29.70;18.13;;;10.20;99.90;;;;;;4994148;28;20042;-79
2023/10/28 07:44:26;;;;;;;37.30;17.97;;;10.30;99.90;;;;;;4995808;28;20289;-81
2023/10/28 07:46:52;;;;;;;27.73;17.03;;;10.20;99.90;;;;;;4994954;28;20687;-81
2023/10/28 07:49:18;;;;;;;30.43;16.17;;;10.20;99.90;;;;;;4993385;28;20069;-81
2023/10/28 07:51:44;;;;;;;26.07;16.00;;;10.20;99.90;;;;;;4994879;28;20507;-80
2023/10/28 07:54:13;;;;;;;26.40;14.10;;;10.30;99.90;;;;;;4994815;28;20317;-80
2023/10/28 07:56:39;;;;;;;23.43;13.40;;;10.30;99.90;;;;;;4993593;28;20085;-80
2023/10/28 07:59:07;;;;;;;29.73;14.70;;;10.20;99.90;;;;;;4994760;28;20673;-80
2023/10/28 08:01:33;;;;;;;28.80;14.50;;;10.30;99.90;;;;;;4994424;28;20277;-80
2023/10/28 08:03:59;;;;;;;25.63;14.93;;;10.20;99.90;;;;;;4994714;28;20289;-79
2023/10/28 08:06:25;;;;;;;27.30;14.57;;;10.30;99.90;;;;;;4995163;28;20277;-81
2023/10/28 08:08:55;;;;;;;22.07;13.53;;;10.30;99.90;;;;;;4994589;28;20502;-80
2023/10/28 08:11:24;;;;;;;26.90;16.53;;;10.30;99.90;;;;;;4994478;28;20054;-80
2023/10/28 08:13:50;;;;;;;24.73;12.87;;;10.30;99.90;;;;;;4993411;28;20281;-81
2023/10/28 08:16:20;;;;;;;26.07;14.30;;;10.30;99.90;;;;;;4993239;28;20790;-80
2023/10/28 08:18:46;;;;;;;21.97;13.43;;;10.30;99.90;;;;;;4994538;28;20050;-80
2023/10/28 08:21:14;;;;;;;21.30;13.27;;;10.30;99.90;;;;;;4994414;28;20281;-80
2023/10/28 08:23:40;;;;;;;22.53;13.33;;;10.30;99.90;;;;;;4994375;28;20291;-80
2023/10/28 08:26:10;;;;;;;23.30;12.70;;;10.30;99.90;;;;;;4994827;28;20646;-79
2023/10/28 08:28:37;;;;;;;23.27;12.37;;;10.30;99.90;;;;;;4993048;28;20304;-80
2023/10/28 08:31:07;;;;;;;20.77;12.63;;;10.30;99.90;;;;;;4994084;28;20286;-80
2023/10/28 08:33:36;;;;;;;18.80;11.40;;;10.40;99.90;;;;;;4995115;28;20325;-80
2023/10/28 08:36:03;;;;;;;20.13;12.63;;;10.40;99.90;;;;;;4993057;28;20393;-80
2023/10/28 08:38:29;;;;;;;17.93;11.13;;;10.40;99.90;;;;;;4994232;28;20425;-81
2023/10/28 08:40:58;;;;;;;25.73;12.00;;;10.40;99.90;;;;;;4992906;28;20293;-80
2023/10/28 08:43:26;;;;;;;28.13;13.33;;;10.40;99.90;;;;;;4994633;28;20046;-80
2023/10/28 08:45:53;;;;;;;24.40;12.90;;;10.40;99.90;;;;;;4993547;28;20330;-79
2023/10/28 08:48:22;;;;;;;19.03;11.90;;;10.40;99.90;;;;;;4994038;28;20285;-79
2023/10/28 08:50:53;;;;;;;20.43;11.93;;;10.40;99.90;;;;;;4994034;28;20754;-79
2023/10/28 08:53:21;;;;;;;17.57;11.20;;;10.40;99.90;;;;;;4993801;28;20348;-79
2023/10/28 08:55:49;;;;;;;21.30;12.30;;;10.40;99.90;;;;;;4993969;28;20372;-80
2023/10/28 08:58:18;;;;;;;17.50;11.73;;;10.40;99.90;;;;;;4993997;28;20293;-80
2023/10/28 09:00:50;;;;;;;21.40;12.93;;;10.40;99.90;;;;;;4994822;28;20285;-78
2023/10/28 09:03:20;;;;;;;20.77;10.43;;;10.50;99.90;;;;;;4994571;28;20280;-79
2023/10/28 09:05:48;;;;;;;19.90;11.97;;;10.40;99.90;;;;;;4994009;28;20368;-79
2023/10/28 09:08:14;;;;;;;23.03;11.97;;;10.50;99.90;;;;;;4994507;28;20312;-79
2023/10/28 09:10:45;;;;;;;17.90;10.87;;;10.50;99.90;;;;;;4992892;28;20804;-79
2023/10/28 09:13:13;;;;;;;19.13;9.70;;;10.50;99.90;;;;;;4994673;28;20129;-80
2023/10/28 09:15:39;;;;;;;17.90;10.60;;;10.60;99.90;;;;;;4993856;28;20347;-79
2023/10/28 09:18:05;;;;;;;18.10;11.33;;;10.60;99.90;;;;;;4993849;28;20281;-79
2023/10/28 09:20:31;;;;;;;20.60;9.90;;;10.60;99.90;;;;;;4993725;28;20286;-84
2023/10/28 09:22:56;;;;;;;19.97;11.07;;;10.60;99.90;;;;;;4994377;28;20488;-78
2023/10/28 09:25:22;;;;;;;23.13;13.37;;;10.60;99.90;;;;;;4993754;28;20043;-78
2023/10/28 09:27:48;;;;;;;14.50;10.70;;;10.60;99.90;;;;;;4993085;28;20054;-81
2023/10/28 09:30:15;;;;;;;21.70;11.40;;;10.70;99.90;;;;;;4993670;28;20056;-81
2023/10/28 09:32:41;;;;;;;27.73;11.87;;;10.70;99.90;;;;;;4960897;28;20286;-80
2023/10/28 09:35:08;;;;;;;21.37;11.73;;;10.70;99.90;;;;;;4992620;28;20340;-79
2023/10/28 09:37:36;;;;;;;20.67;11.73;;;10.70;99.90;;;;;;4992417;28;20129;-78
2023/10/28 09:40:10;;;;;;;20.00;11.60;;;10.80;99.90;;;;;;4994199;28;20285;-79
2023/10/28 09:42:37;;;;;;;17.75;10.57;;;10.90;99.90;;;;;;4996123;28;20813;-80
2023/10/28 09:45:09;;;;;;;18.53;10.47;;;10.90;99.90;;;;;;4996505;28;20133;-80
2023/10/28 09:47:43;;;;;;;14.40;10.07;;;10.90;99.90;;;;;;4997165;28;20288;-80
2023/10/28 09:50:13;;;;;;;17.20;9.93;;;10.90;99.90;;;;;;4996185;28;20289;-80
2023/10/28 09:52:43;;;;;;;14.47;8.70;;;10.90;99.90;;;;;;4996831;28;20549;-78
2023/10/28 09:55:13;;;;;;;22.57;10.03;;;11.00;99.90;;;;;;4997005;28;20281;-80
2023/10/28 09:57:40;;;;;;;17.10;10.10;;;10.90;99.90;;;;;;4997278;28;20360;-81
2023/10/28 10:00:19;;;;;;;17.33;10.00;;;11.00;99.90;;;;;;4979855;28;20296;-85
2023/10/28 10:03:40;;;;;;;16.57;9.73;;;11.00;99.90;;;;;;4996952;28;20324;-81
2023/10/28 10:06:08;;;;;;;20.63;9.27;;;11.00;99.90;;;;;;4939943;29;20290;-80
2023/10/28 10:08:36;;;;;;;18.40;9.60;;;11.00;99.90;;;;;;4940193;29;20421;-81
2023/10/28 10:11:06;;;;;;;18.00;8.80;;;11.00;99.90;;;;;;4950211;28;20301;-83
2023/10/28 10:13:44;;;;;;;16.40;9.47;;;11.00;99.90;;;;;;4980113;28;20294;-81
2023/10/28 10:16:33;;;;;;;15.20;8.40;;;11.00;99.90;;;;;;4995729;28;20310;-79
2023/10/28 10:19:05;;;;;;;18.20;8.03;;;11.10;99.90;;;;;;4996702;28;20281;-79
2023/10/28 10:21:34;;;;;;;15.13;8.83;;;11.00;99.90;;;;;;4996745;28;20738;-79
2023/10/28 10:24:06;;;;;;;17.47;8.83;;;11.10;99.90;;;;;;4996542;28;20368;-79
2023/10/28 10:26:34;;;;;;;19.43;8.73;;;11.10;99.90;;;;;;4996474;28;20270;-78
2023/10/28 10:29:06;;;;;;;17.77;8.53;;;11.10;99.90;;;;;;5003849;28;20292;-89
2023/10/28 10:31:34;;;;;;;13.80;8.30;;;11.20;99.90;;;;;;5015189;28;20329;-81
2023/10/28 10:34:08;;;;;;;17.13;8.53;;;11.20;99.90;;;;;;4983673;28;20588;-81
2023/10/28 10:36:40;;;;;;;15.77;8.47;;;11.20;99.90;;;;;;4996343;28;20313;-80
2023/10/28 10:39:20;;;;;;;18.70;8.10;;;11.20;99.90;;;;;;4996228;28;20282;-81
2023/10/28 10:41:54;;;;;;;15.07;8.23;;;11.30;99.90;;;;;;4996713;28;20298;-80
2023/10/28 10:44:21;;;;;;;14.47;8.17;;;11.30;99.90;;;;;;4996471;28;20304;-81
2023/10/28 10:46:48;;;;;;;19.20;8.57;;;11.30;99.90;;;;;;4996074;28;20291;-81
2023/10/28 10:49:14;;;;;;;10.50;6.97;;;11.40;99.90;;;;;;4996548;28;20324;-80
2023/10/28 10:51:40;;;;;;;13.27;7.03;;;11.50;99.90;;;;;;4995984;28;20300;-81
2023/10/28 10:54:06;;;;;;;13.43;7.17;;;11.60;99.90;;;;;;4978557;28;20286;-81
2023/10/28 10:56:33;;;;;;;14.27;7.00;;;11.60;99.90;;;;;;4995849;28;20308;-80
2023/10/28 10:58:59;;;;;;;13.77;5.47;;;11.70;99.90;;;;;;4995899;28;20332;-81
2023/10/28 11:01:25;;;;;;;12.47;6.43;;;11.70;99.90;;;;;;4994858;28;20289;-81
2023/10/28 11:03:51;;;;;;;12.13;6.17;;;11.70;99.90;;;;;;4995795;28;20437;-82
2023/10/28 11:06:17;;;;;;;13.17;5.97;;;11.70;99.90;;;;;;4995754;28;20269;-81
2023/10/28 11:08:43;;;;;;;13.47;5.77;;;11.70;99.90;;;;;;4995347;28;20285;-78
2023/10/28 11:11:13;;;;;;;11.37;5.83;;;11.70;99.90;;;;;;4995898;28;20046;-77
2023/10/28 11:13:39;;;;;;;14.80;6.20;;;11.60;99.90;;;;;;4996083;28;20054;-80
2023/10/28 11:16:05;;;;;;;17.27;7.50;;;11.60;99.90;;;;;;4995051;28;20300;-78
2023/10/28 11:18:32;;;;;;;14.53;7.00;;;11.60;99.90;;;;;;4997470;28;20451;-80
2023/10/28 11:20:57;;;;;;;15.53;6.13;;;11.60;99.90;;;;;;4995432;28;20325;-80
2023/10/28 11:23:23;;;;;;;18.93;6.93;;;11.60;99.90;;;;;;4994182;28;20836;-80
2023/10/28 11:25:50;;;;;;;10.43;6.33;;;11.60;99.90;;;;;;4996005;28;20038;-80
2023/10/28 11:28:15;;;;;;;15.07;6.77;;;11.60;99.90;;;;;;4994961;28;20050;-82
2023/10/28 11:31:02;;;;;;;13.93;6.90;;;11.60;99.90;;;;;;4993915;28;20285;-80
2023/10/28 11:33:28;;;;;;;14.53;6.73;;;11.60;99.90;;;;;;4994867;28;20058;-80
2023/10/28 11:35:55;;;;;;;15.57;7.33;;;11.70;99.90;;;;;;4994926;28;20293;-82
2023/10/28 11:38:20;;;;;;;13.50;6.50;;;11.70;99.90;;;;;;4994744;28;20054;-81
2023/10/28 11:40:46;;;;;;;12.03;6.33;;;11.70;99.90;;;;;;4994760;28;20328;-82
2023/10/28 11:43:16;;;;;;;16.43;6.30;;;11.70;99.90;;;;;;4994735;28;20085;-81
2023/10/28 11:45:42;;;;;;;15.67;6.60;;;11.70;99.90;;;;;;4994919;28;20047;-81
2023/10/28 11:48:08;;;;;;;14.00;6.70;;;11.70;99.90;;;;;;4993697;28;20282;-80
2023/10/28 11:50:35;;;;;;;15.60;6.27;;;11.70;99.90;;;;;;4994826;28;20046;-78
2023/10/28 11:53:00;;;;;;;13.20;6.00;;;11.70;99.90;;;;;;4993566;28;20289;-79
2023/10/28 11:55:26;;;;;;;12.27;6.43;;;11.80;99.90;;;;;;4994699;28;20297;-80
2023/10/28 11:57:52;;;;;;;14.70;6.67;;;11.90;99.90;;;;;;4995029;28;20050;-80
2023/10/28 12:00:18;;;;;;;14.33;6.53;;;11.80;99.90;;;;;;4995534;28;20072;-81
2023/10/28 12:02:44;;;;;;;17.23;6.33;;;11.90;99.90;;;;;;4994683;28;20397;-79
2023/10/28 12:05:10;;;;;;;11.93;5.67;;;11.90;99.90;;;;;;4994148;28;20066;-79
2023/10/28 12:07:36;;;;;;;16.77;5.93;;;11.80;99.90;;;;;;4993575;28;20285;-78
2023/10/28 12:10:06;;;;;;;14.57;6.37;;;11.80;99.90;;;;;;4994603;28;20178;-78
2023/10/28 12:12:32;;;;;;;17.93;5.93;;;11.80;99.90;;;;;;4994529;28;20435;-79
2023/10/28 12:14:57;;;;;;;13.70;5.80;;;11.90;99.90;;;;;;4994495;28;20292;-78
2023/10/28 12:17:23;;;;;;;16.63;6.27;;;11.90;99.90;;;;;;4993196;28;20046;-78
2023/10/28 12:19:49;;;;;;;11.47;6.40;;;11.90;99.90;;;;;;4993665;28;20054;-79
2023/10/28 12:22:15;;;;;;;15.63;6.97;;;12.00;99.90;;;;;;4994928;28;20042;-79
2023/10/28 12:24:40;;;;;;;18.00;6.37;;;12.00;99.90;;;;;;4994581;28;20066;-80
2023/10/28 12:27:06;;;;;;;14.23;6.17;;;12.00;99.90;;;;;;4994578;28;20065;-80
2023/10/28 12:29:32;;;;;;;12.60;5.07;;;12.00;99.90;;;;;;4994804;28;20046;-80